createdAt,value
2018-08-14T00:00:49.339Z,87.46
2018-08-14T00:03:16.265Z,87.44
2018-08-14T00:05:42.745Z,87.67
2018-08-14T00:08:09.218Z,87.48
2018-08-14T00:10:37.316Z,87.67
2018-08-14T00:13:03.811Z,87.96
2018-08-14T00:15:30.300Z,87.90
2018-08-14T00:17:56.807Z,87.59
2018-08-14T00:20:23.786Z,87.79
2018-08-14T00:22:50.482Z,87.77
2018-08-14T00:25:16.975Z,87.84
2018-08-14T00:27:43.912Z,88.02
2018-08-14T00:30:10.389Z,88.01
2018-08-14T00:32:36.863Z,88.04
2018-08-14T00:35:03.358Z,88.12
2018-08-14T00:37:29.862Z,88.47
2018-08-14T00:39:56.336Z,89.01
2018-08-14T00:42:22.793Z,89.27
2018-08-14T00:44:49.720Z,89.17
2018-08-14T00:47:16.221Z,89.01
2018-08-14T00:49:42.714Z,89.40
2018-08-14T00:52:09.231Z,89.84
2018-08-14T00:54:36.207Z,89.46
2018-08-14T00:57:02.710Z,89.30
2018-08-14T00:59:29.202Z,89.00
2018-08-14T01:01:56.009Z,89.17
2018-08-14T01:04:22.473Z,89.11
2018-08-14T01:06:48.941Z,88.88
2018-08-14T01:09:15.870Z,88.98
2018-08-14T01:11:42.353Z,88.90
2018-08-14T01:14:08.823Z,88.98
2018-08-14T01:16:35.319Z,89.00
2018-08-14T01:19:02.261Z,88.89
2018-08-14T01:21:28.802Z,89.11
2018-08-14T01:23:55.281Z,89.17
2018-08-14T01:26:21.738Z,88.72
2018-08-14T01:28:49.161Z,89.19
2018-08-14T01:31:15.658Z,89.24
2018-08-14T01:33:42.196Z,89.31
2018-08-14T01:36:08.711Z,89.55
2018-08-14T01:38:35.745Z,89.48
2018-08-14T01:41:02.890Z,89.91
2018-08-14T01:43:29.384Z,90.10
2018-08-14T01:45:57.593Z,89.72
2018-08-14T01:48:25.100Z,89.83
2018-08-14T01:50:51.597Z,90.21
2018-08-14T01:53:19.039Z,89.96
2018-08-14T01:55:45.889Z,90.37
2018-08-14T01:58:12.365Z,90.35
2018-08-14T02:00:38.828Z,91.03
2018-08-14T02:03:05.374Z,90.92
2018-08-14T02:05:32.216Z,90.97
2018-08-14T02:07:58.696Z,90.32
2018-08-14T02:10:25.189Z,90.29
2018-08-14T02:12:51.653Z,90.49
2018-08-14T02:15:18.559Z,90.07
2018-08-14T02:17:45.062Z,90.12
2018-08-14T02:20:11.559Z,90.31
2018-08-14T02:22:38.088Z,90.63
2018-08-14T02:25:04.939Z,90.37
2018-08-14T02:27:31.429Z,90.51
2018-08-14T02:29:57.928Z,90.20
2018-08-14T02:32:24.405Z,90.74
2018-08-14T02:34:51.265Z,90.37
2018-08-14T02:37:17.762Z,90.67
2018-08-14T02:39:44.287Z,90.49
2018-08-14T02:42:11.385Z,91.06
2018-08-14T02:44:38.199Z,90.52
2018-08-14T02:47:04.700Z,91.01
2018-08-14T02:49:31.229Z,90.74
2018-08-14T02:51:57.715Z,91.37
2018-08-14T02:54:24.502Z,91.23
2018-08-14T02:56:50.961Z,90.94
2018-08-14T02:59:17.464Z,90.66
2018-08-14T03:01:44.268Z,90.63
2018-08-14T03:04:10.794Z,90.90
2018-08-14T03:06:37.303Z,90.45
2018-08-14T03:09:04.154Z,91.13
2018-08-14T03:11:30.616Z,90.95
2018-08-14T03:13:57.116Z,90.70
2018-08-14T03:16:23.627Z,90.96
2018-08-14T03:18:50.523Z,90.49
2018-08-14T03:21:17.053Z,90.31
2018-08-14T03:23:43.660Z,90.55
2018-08-14T03:26:10.175Z,90.56
2018-08-14T03:28:37.089Z,90.34
2018-08-14T03:31:03.589Z,90.48
2018-08-14T03:33:30.077Z,90.49
2018-08-14T03:35:56.544Z,90.97
2018-08-14T03:38:23.038Z,90.65
2018-08-14T03:40:49.501Z,90.47
2018-08-14T03:43:15.984Z,90.58
2018-08-14T03:45:42.821Z,90.72
2018-08-14T03:48:09.308Z,90.99
2018-08-14T03:50:35.796Z,90.95
2018-08-14T03:53:02.713Z,91.17
2018-08-14T03:55:29.214Z,90.56
2018-08-14T03:57:56.178Z,90.87
2018-08-14T04:00:22.644Z,90.96
2018-08-14T04:02:49.459Z,90.87
2018-08-14T04:05:17.136Z,90.37
2018-08-14T04:07:43.621Z,90.68
2018-08-14T04:10:10.618Z,90.77
2018-08-14T04:12:40.184Z,90.49
2018-08-14T04:15:06.677Z,90.55
2018-08-14T04:17:33.182Z,90.68
2018-08-14T04:19:59.640Z,90.67
2018-08-14T04:22:26.556Z,90.23
2018-08-14T04:24:53.150Z,90.07
2018-08-14T04:27:19.601Z,89.78
2018-08-14T04:29:46.065Z,89.95
2018-08-14T04:32:12.974Z,89.60
2018-08-14T04:34:39.486Z,89.79
2018-08-14T04:37:05.986Z,89.66
2018-08-14T04:39:32.493Z,89.86
2018-08-14T04:41:58.985Z,89.66
2018-08-14T04:44:25.455Z,90.21
2018-08-14T04:46:52.428Z,89.80
2018-08-14T04:49:20.080Z,89.80
2018-08-14T04:51:48.078Z,90.17
2018-08-14T04:54:14.820Z,90.08
2018-08-14T04:56:41.398Z,90.04
2018-08-14T04:59:08.389Z,89.73
2018-08-14T05:01:42.328Z,89.81
2018-08-14T05:04:10.060Z,89.71
2018-08-14T05:06:36.600Z,89.00
2018-08-14T05:09:03.191Z,88.88
2018-08-14T05:11:29.771Z,88.89
2018-08-14T05:13:56.717Z,88.34
2018-08-14T05:16:23.221Z,88.46
2018-08-14T05:18:49.952Z,88.45
2018-08-14T05:21:17.394Z,88.30
2018-08-14T05:23:43.861Z,88.15
2018-08-14T05:26:10.375Z,87.50
2018-08-14T05:28:37.185Z,87.71
2018-08-14T05:31:04.318Z,87.46
2018-08-14T05:33:30.881Z,87.44
2018-08-14T05:35:57.646Z,87.45
2018-08-14T05:38:24.137Z,87.62
2018-08-14T05:40:50.621Z,87.66
2018-08-14T05:43:17.373Z,87.43
2018-08-14T05:45:43.918Z,87.67
2018-08-14T05:48:10.457Z,87.96
2018-08-14T05:50:37.221Z,88.93
2018-08-14T05:53:03.759Z,89.41
2018-08-14T05:55:30.282Z,91.33
2018-08-14T05:57:57.072Z,91.56
2018-08-14T06:00:23.578Z,92.25
2018-08-14T06:02:50.045Z,93.20
2018-08-14T06:05:16.809Z,93.14
2018-08-14T06:07:43.277Z,93.34
2018-08-14T06:10:09.828Z,93.61
2018-08-14T06:12:36.630Z,93.71
2018-08-14T06:15:03.097Z,94.37
2018-08-14T06:17:29.569Z,93.89
2018-08-14T06:19:56.347Z,94.09
2018-08-14T06:22:22.847Z,94.09
2018-08-14T06:24:49.321Z,93.83
2018-08-14T06:27:16.067Z,94.21
2018-08-14T06:29:42.542Z,94.02
2018-08-14T06:32:09.357Z,94.03
2018-08-14T06:34:36.129Z,93.93
2018-08-14T06:37:02.593Z,93.44
2018-08-14T06:39:29.094Z,93.92
2018-08-14T06:41:55.890Z,93.13
2018-08-14T06:44:22.386Z,93.58
2018-08-14T06:46:48.890Z,93.18
2018-08-14T06:49:15.703Z,93.01
2018-08-14T06:51:42.166Z,92.04
2018-08-14T06:54:08.671Z,92.52
2018-08-14T06:56:35.454Z,92.00
2018-08-14T06:59:01.941Z,91.80
2018-08-14T07:01:28.446Z,92.10
2018-08-14T07:03:55.221Z,91.34
2018-08-14T07:06:21.672Z,90.24
2018-08-14T07:08:48.127Z,90.89
2018-08-14T07:11:14.926Z,90.95
2018-08-14T07:13:41.391Z,91.02
2018-08-14T07:16:07.870Z,91.48
2018-08-14T07:18:34.648Z,91.37
2018-08-14T07:21:01.430Z,91.04
2018-08-14T07:23:28.010Z,90.74
2018-08-14T07:25:54.855Z,90.50
2018-08-14T07:28:21.403Z,90.95
2018-08-14T07:30:47.881Z,91.47
2018-08-14T07:33:14.657Z,91.00
2018-08-14T07:35:41.164Z,90.93
2018-08-14T07:38:07.635Z,90.88
2018-08-14T07:40:34.407Z,91.18
2018-08-14T07:43:00.917Z,90.97
2018-08-14T07:45:27.415Z,91.54
2018-08-14T07:47:59.058Z,91.10
2018-08-14T07:50:25.514Z,90.99
2018-08-14T07:52:53.397Z,91.08
2018-08-14T07:55:20.138Z,91.17
2018-08-14T07:57:46.653Z,90.75
2018-08-14T08:00:13.160Z,90.88
2018-08-14T08:02:39.933Z,89.48
2018-08-14T08:05:06.401Z,88.66
2018-08-14T08:07:32.867Z,87.48
2018-08-14T08:09:59.382Z,87.62
2018-08-14T08:12:25.895Z,87.44
2018-08-14T08:14:52.915Z,86.89
2018-08-14T08:17:19.429Z,87.64
2018-08-14T08:19:46.138Z,87.50
2018-08-14T08:22:13.930Z,88.71
2018-08-14T08:24:40.472Z,88.58
2018-08-14T08:27:08.745Z,88.17
2018-08-14T08:29:37.163Z,87.54
2018-08-14T08:32:03.737Z,87.68
2018-08-14T08:34:30.397Z,87.18
2018-08-14T08:36:57.225Z,86.52
2018-08-14T08:39:23.714Z,86.96
2018-08-14T08:41:50.490Z,86.58
2018-08-14T08:44:17.302Z,85.54
2018-08-14T08:46:43.773Z,83.24
2018-08-14T08:49:13.478Z,82.96
2018-08-14T08:51:40.265Z,82.70
2018-08-14T08:54:06.795Z,81.49
2018-08-14T08:56:33.485Z,81.18
2018-08-14T08:59:00.245Z,80.84
2018-08-14T09:01:26.873Z,81.26
2018-08-14T09:03:53.397Z,82.12
2018-08-14T09:06:20.185Z,82.59
2018-08-14T09:08:46.690Z,82.99
2018-08-14T09:11:13.310Z,80.70
2018-08-14T09:13:41.285Z,80.07
2018-08-14T09:16:07.919Z,79.20
2018-08-14T09:18:34.378Z,79.74
2018-08-14T09:21:02.118Z,77.07
2018-08-14T09:23:28.573Z,79.55
2018-08-14T09:25:55.036Z,79.62
2018-08-14T09:28:22.474Z,79.69
2018-08-14T09:30:50.319Z,79.51
2018-08-14T09:33:16.819Z,79.08
2018-08-14T09:35:43.758Z,80.05
2018-08-14T09:38:10.277Z,80.25
2018-08-14T09:43:08.825Z,78.70
2018-08-14T09:45:35.295Z,78.78
2018-08-14T09:48:01.781Z,78.99
2018-08-14T09:50:28.550Z,79.43
2018-08-14T09:52:55.005Z,80.00
2018-08-14T09:55:22.072Z,79.75
2018-08-14T09:57:49.640Z,79.32
2018-08-14T10:00:16.225Z,78.05
2018-08-14T10:02:42.729Z,76.36
2018-08-14T10:05:09.507Z,75.01
2018-08-14T10:07:36.873Z,73.38
2018-08-14T10:10:03.408Z,73.05
2018-08-14T10:12:30.865Z,72.36
2018-08-14T10:14:57.328Z,71.80
2018-08-14T10:17:23.810Z,73.30
2018-08-14T10:19:51.320Z,71.42
2018-08-14T10:22:17.818Z,72.37
2018-08-14T10:24:44.280Z,72.06
2018-08-14T10:27:13.127Z,71.88
2018-08-14T10:29:39.601Z,70.58
2018-08-14T10:32:06.065Z,71.08
2018-08-14T10:34:32.871Z,69.32
2018-08-14T10:36:59.367Z,68.43
2018-08-14T10:39:25.826Z,67.03
2018-08-14T10:41:54.636Z,68.32
2018-08-14T10:46:52.470Z,69.45
2018-08-14T10:49:19.221Z,68.40
2018-08-14T10:51:45.685Z,68.17
2018-08-14T10:54:12.139Z,67.31
2018-08-14T10:56:39.603Z,68.14
2018-08-14T10:59:08.406Z,68.33
2018-08-14T11:01:34.891Z,68.54
2018-08-14T11:04:02.464Z,68.54
2018-08-14T11:06:28.922Z,68.25
2018-08-14T11:08:55.385Z,66.69
2018-08-14T11:11:21.883Z,65.44
2018-08-14T11:13:48.377Z,65.02
2018-08-14T11:16:15.393Z,64.60
2018-08-14T11:18:41.896Z,65.42
2018-08-14T11:21:08.352Z,63.47
2018-08-14T11:23:36.605Z,65.00
2018-08-14T11:26:03.789Z,64.17
2018-08-14T11:28:30.434Z,65.67
2018-08-14T11:30:57.320Z,64.70
2018-08-14T11:33:23.826Z,63.78
2018-08-14T11:35:50.296Z,62.28
2018-08-14T11:38:20.430Z,62.80
2018-08-14T11:40:50.577Z,62.14
2018-08-14T11:43:17.093Z,60.27
2018-08-14T11:45:43.845Z,59.38
2018-08-14T11:48:10.321Z,57.94
2018-08-14T11:50:37.429Z,58.75
2018-08-14T11:53:04.203Z,57.65
2018-08-14T11:55:32.330Z,56.69
2018-08-14T11:57:58.774Z,56.45
2018-08-14T12:00:25.539Z,57.69
2018-08-14T12:02:52.577Z,56.94
2018-08-14T12:05:21.700Z,54.50
2018-08-14T12:07:48.486Z,54.87
2018-08-14T12:10:16.128Z,54.16
2018-08-14T12:12:44.454Z,54.43
2018-08-14T12:15:12.205Z,56.49
2018-08-14T12:17:38.665Z,55.58
2018-08-14T12:20:05.175Z,54.71
2018-08-14T12:22:31.990Z,55.56
2018-08-14T12:24:58.457Z,55.11
2018-08-14T12:27:25.975Z,54.50
2018-08-14T12:29:52.825Z,53.65
2018-08-14T12:32:20.541Z,54.06
2018-08-14T12:34:47.011Z,55.67
2018-08-14T12:37:15.326Z,56.13
2018-08-14T12:39:41.823Z,55.89
2018-08-14T12:42:08.612Z,53.82
2018-08-14T12:44:36.260Z,53.62
2018-08-14T12:47:02.781Z,53.21
2018-08-14T12:49:29.298Z,50.72
2018-08-14T12:51:57.006Z,50.67
2018-08-14T12:54:24.215Z,51.62
2018-08-14T12:56:50.677Z,52.17
2018-08-14T12:59:17.468Z,52.55
2018-08-14T13:01:44.043Z,53.17
2018-08-14T13:04:10.539Z,53.10
2018-08-14T13:06:37.323Z,53.46
2018-08-14T13:09:03.904Z,52.15
2018-08-14T13:11:30.344Z,51.88
2018-08-14T13:13:57.131Z,54.11
2018-08-14T13:16:23.603Z,53.88
2018-08-14T13:18:50.092Z,53.17
2018-08-14T13:21:17.915Z,52.45
2018-08-14T13:23:44.800Z,52.03
2018-08-14T13:26:12.347Z,51.91
2018-08-14T13:28:42.157Z,53.30
2018-08-14T13:31:09.301Z,52.43
2018-08-14T13:33:35.791Z,50.64
2018-08-14T13:36:03.121Z,50.56
2018-08-14T13:38:30.485Z,50.10
2018-08-14T13:40:56.959Z,49.17
2018-08-14T13:43:23.764Z,48.57
2018-08-14T13:45:53.251Z,49.53
2018-08-14T13:48:20.429Z,49.68
2018-08-14T13:50:48.593Z,48.43
2018-08-14T13:53:16.529Z,48.21
2018-08-14T13:55:44.438Z,49.15
2018-08-14T13:58:11.237Z,49.59
2018-08-14T14:00:38.137Z,51.06
2018-08-14T14:03:05.274Z,50.95
2018-08-14T14:05:32.993Z,51.03
2018-08-14T14:07:59.486Z,51.23
2018-08-14T14:10:26.027Z,50.23
2018-08-14T14:12:52.840Z,51.38
2018-08-14T14:15:20.244Z,48.68
2018-08-14T14:17:46.707Z,50.49
2018-08-14T14:20:13.470Z,50.59
2018-08-14T14:22:41.083Z,51.93
2018-08-14T14:25:07.549Z,52.21
2018-08-14T14:27:34.334Z,51.86
2018-08-14T14:30:01.838Z,51.08
2018-08-14T14:32:28.346Z,51.98
2018-08-14T14:34:55.375Z,52.32
2018-08-14T14:37:21.937Z,50.08
2018-08-14T14:39:50.242Z,46.84
2018-08-14T14:42:17.381Z,46.83
2018-08-14T14:44:43.878Z,47.03
2018-08-14T14:47:11.473Z,45.99
2018-08-14T14:49:37.969Z,45.63
2018-08-14T14:52:04.510Z,48.04
2018-08-14T14:54:31.285Z,49.91
2018-08-14T14:56:57.786Z,51.07
2018-08-14T14:59:25.029Z,51.72
2018-08-14T15:01:52.977Z,52.26
2018-08-14T15:04:19.455Z,51.92
2018-08-14T15:06:45.928Z,51.88
2018-08-14T15:09:12.757Z,52.50
2018-08-14T15:11:39.269Z,51.86
2018-08-14T15:14:05.797Z,48.90
2018-08-14T15:16:32.797Z,46.86
2018-08-14T15:18:59.286Z,47.61
2018-08-14T15:21:26.545Z,48.58
2018-08-14T15:23:53.341Z,49.23
2018-08-14T15:26:19.847Z,49.55
2018-08-14T15:28:48.161Z,49.77
2018-08-14T15:31:14.964Z,48.10
2018-08-14T15:36:18.202Z,44.62
2018-08-14T15:38:46.056Z,43.65
2018-08-14T15:41:12.747Z,44.79
2018-08-14T15:43:40.488Z,47.43
2018-08-14T15:46:07.238Z,48.72
2018-08-14T15:48:33.790Z,46.77
2018-08-14T15:51:01.262Z,46.96
2018-08-14T15:53:27.848Z,48.37
2018-08-14T15:55:54.340Z,49.33
2018-08-14T15:58:21.184Z,49.95
2018-08-14T16:00:48.502Z,49.74
2018-08-14T16:03:19.246Z,51.06
2018-08-14T16:05:46.089Z,50.75
2018-08-14T16:08:12.553Z,50.79
2018-08-14T16:10:39.011Z,51.22
2018-08-14T16:13:06.477Z,51.02
2018-08-14T16:15:33.136Z,48.09
2018-08-14T16:17:59.970Z,47.84
2018-08-14T16:20:26.733Z,44.48
2018-08-14T16:22:53.309Z,41.44
2018-08-14T16:25:19.969Z,41.81
2018-08-14T16:27:46.737Z,42.33
2018-08-14T16:30:13.202Z,45.23
2018-08-14T16:32:39.669Z,47.95
2018-08-14T16:35:07.688Z,47.64
2018-08-14T16:37:34.746Z,44.45
2018-08-14T16:40:01.233Z,43.38
2018-08-14T16:42:27.720Z,44.67
2018-08-14T16:44:54.261Z,46.51
2018-08-14T16:47:22.512Z,49.89
2018-08-14T16:49:51.676Z,50.22
2018-08-14T16:52:18.216Z,49.86
2018-08-14T16:54:45.212Z,50.07
2018-08-14T16:57:11.784Z,48.59
2018-08-14T16:59:38.254Z,47.15
2018-08-14T17:02:05.041Z,47.59
2018-08-14T17:04:31.534Z,47.40
2018-08-14T17:07:00.670Z,49.17
2018-08-14T17:09:28.158Z,49.93
2018-08-14T17:11:55.333Z,51.42
2018-08-14T17:14:23.203Z,52.01
2018-08-14T17:19:23.964Z,52.73
2018-08-14T17:21:50.938Z,52.21
2018-08-14T17:24:17.726Z,53.14
2018-08-14T17:26:45.473Z,53.49
2018-08-14T17:31:44.289Z,54.22
2018-08-14T17:34:10.783Z,54.40
2018-08-14T17:36:38.339Z,54.48
2018-08-14T17:39:08.144Z,54.99
2018-08-14T17:41:35.649Z,55.26
2018-08-14T17:44:03.105Z,55.03
2018-08-14T17:46:31.563Z,55.64
2018-08-14T17:48:58.666Z,55.40
2018-08-14T17:51:25.470Z,56.00
2018-08-14T17:53:52.531Z,55.65
2018-08-14T17:56:19.057Z,56.03
2018-08-14T17:58:46.318Z,56.15
2018-08-14T18:01:13.349Z,56.62
2018-08-14T18:03:39.852Z,56.22
2018-08-14T18:06:06.493Z,55.58
2018-08-14T18:08:36.614Z,55.72
2018-08-14T18:11:04.800Z,55.88
2018-08-14T18:13:32.237Z,56.49
2018-08-14T18:15:59.048Z,55.88
2018-08-14T18:18:26.082Z,56.36
2018-08-14T18:20:52.613Z,56.96
2018-08-14T18:23:20.261Z,57.10
2018-08-14T18:25:46.876Z,56.91
2018-08-14T18:28:13.521Z,57.12
2018-08-14T18:30:40.666Z,57.95
2018-08-14T18:33:07.578Z,58.08
2018-08-14T18:35:34.912Z,59.30
2018-08-14T18:38:02.389Z,59.82
2018-08-14T18:40:28.905Z,59.78
2018-08-14T18:42:55.383Z,60.15
2018-08-14T18:45:22.245Z,60.29
2018-08-14T18:47:49.446Z,60.38
2018-08-14T18:50:17.111Z,60.67
2018-08-14T18:52:44.654Z,61.28
2018-08-14T18:55:11.153Z,61.66
2018-08-14T18:57:38.564Z,62.41
2018-08-14T19:00:05.378Z,62.16
2018-08-14T19:02:33.042Z,63.08
2018-08-14T19:05:02.783Z,63.22
2018-08-14T19:07:29.760Z,63.78
2018-08-14T19:09:58.303Z,63.87
2018-08-14T19:12:25.418Z,64.11
2018-08-14T19:14:56.130Z,65.03
2018-08-14T19:17:23.510Z,65.72
2018-08-14T19:19:50.053Z,67.72
2018-08-14T19:22:17.514Z,68.64
2018-08-14T19:24:45.543Z,70.37
2018-08-14T19:27:13.641Z,71.71
2018-08-14T19:29:41.389Z,71.48
2018-08-14T19:32:08.402Z,72.21
2018-08-14T19:34:35.508Z,72.82
2018-08-14T19:37:02.330Z,72.35
2018-08-14T19:39:28.858Z,73.67
2018-08-14T19:41:55.380Z,73.36
2018-08-14T19:44:24.441Z,73.55
2018-08-14T19:46:51.287Z,74.34
2018-08-14T19:49:20.034Z,73.62
2018-08-14T19:51:46.800Z,74.19
2018-08-14T19:54:13.353Z,74.23
2018-08-14T19:56:41.045Z,73.63
2018-08-14T19:59:07.865Z,74.22
2018-08-14T20:01:34.977Z,73.87
2018-08-14T20:04:01.478Z,73.64
2018-08-14T20:06:28.274Z,73.50
2018-08-14T20:08:55.519Z,73.76
2018-08-14T20:11:22.055Z,73.83
2018-08-14T20:13:49.411Z,74.39
2018-08-14T20:16:16.050Z,73.91
2018-08-14T20:18:43.786Z,74.08
2018-08-14T20:21:15.088Z,73.12
2018-08-14T20:23:45.791Z,74.28
2018-08-14T20:26:15.610Z,73.81
2018-08-14T20:28:43.702Z,72.20
2018-08-14T20:31:12.782Z,72.10
2018-08-14T20:33:42.803Z,72.56
2018-08-14T20:36:10.649Z,71.36
2018-08-14T20:38:42.171Z,71.32
2018-08-14T20:41:09.298Z,71.16
2018-08-14T20:43:36.144Z,71.69
2018-08-14T20:46:02.651Z,71.88
2018-08-14T20:48:30.007Z,72.09
2018-08-14T20:50:56.541Z,72.21
2018-08-14T20:53:25.114Z,72.36
2018-08-14T20:55:52.918Z,72.02
2018-08-14T20:58:19.613Z,72.92
2018-08-14T21:00:48.138Z,73.03
2018-08-14T21:03:16.710Z,73.03
2018-08-14T21:05:43.411Z,72.46
2018-08-14T21:08:10.179Z,72.67
2018-08-14T21:10:37.017Z,72.64
2018-08-14T21:13:04.737Z,71.87
2018-08-14T21:15:31.244Z,72.02
2018-08-14T21:18:01.944Z,71.85
2018-08-14T21:20:28.783Z,72.47
2018-08-14T21:22:57.659Z,72.31
2018-08-14T21:25:26.353Z,72.04
2018-08-14T21:27:54.945Z,72.29
2018-08-14T21:30:21.804Z,72.69
2018-08-14T21:32:48.692Z,72.72
2018-08-14T21:35:16.551Z,73.06
2018-08-14T21:37:43.036Z,73.44
2018-08-14T21:40:10.994Z,72.79
2018-08-14T21:42:37.563Z,73.12
2018-08-14T21:45:04.059Z,73.28
2018-08-14T21:47:30.815Z,72.96
2018-08-14T21:49:58.505Z,73.53
2018-08-14T21:52:25.073Z,73.40
2018-08-14T21:54:51.983Z,73.24
2018-08-14T21:57:18.470Z,73.71
2018-08-14T21:59:45.305Z,73.85
2018-08-14T22:02:12.207Z,73.90
2018-08-14T22:04:38.726Z,73.87
2018-08-14T22:07:05.245Z,73.84
2018-08-14T22:09:32.397Z,74.14
2018-08-14T22:11:58.936Z,73.91
2018-08-14T22:14:25.495Z,74.22
2018-08-14T22:16:52.454Z,74.45
2018-08-14T22:19:18.979Z,74.42
2018-08-14T22:21:45.494Z,74.74
2018-08-14T22:24:12.425Z,74.37
2018-08-14T22:26:39.764Z,74.73
2018-08-14T22:29:06.229Z,74.84
2018-08-14T22:31:33.090Z,75.35
2018-08-14T22:34:00.074Z,75.42
2018-08-14T22:36:26.536Z,75.53
2018-08-14T22:38:53.317Z,75.42
2018-08-14T22:41:19.973Z,75.85
2018-08-14T22:43:46.467Z,75.85
2018-08-14T22:46:13.491Z,76.24
2018-08-14T22:48:39.971Z,76.06
2018-08-14T22:51:06.438Z,76.62
2018-08-14T22:53:34.332Z,76.75
2018-08-14T22:56:00.877Z,76.81
2018-08-14T22:58:27.353Z,76.96
2018-08-14T23:00:53.847Z,77.03
2018-08-14T23:03:21.758Z,77.83
2018-08-14T23:05:48.258Z,78.20
2018-08-14T23:08:14.741Z,78.46
2018-08-14T23:10:41.245Z,78.57
2018-08-14T23:13:08.355Z,78.63
2018-08-14T23:15:35.386Z,78.22
2018-08-14T23:18:01.872Z,78.58
2018-08-14T23:20:28.338Z,78.75
2018-08-14T23:22:55.228Z,79.10
2018-08-14T23:25:21.727Z,79.85
2018-08-14T23:27:48.787Z,79.91
2018-08-14T23:30:15.597Z,80.14
2018-08-14T23:32:42.113Z,80.68
2018-08-14T23:35:08.605Z,80.78
2018-08-14T23:37:35.387Z,80.33
2018-08-14T23:40:01.849Z,80.52
2018-08-14T23:42:28.699Z,79.81
2018-08-14T23:44:55.468Z,79.87
2018-08-14T23:47:21.961Z,79.73
2018-08-14T23:49:48.455Z,79.80
2018-08-14T23:52:14.953Z,79.40
2018-08-14T23:54:42.388Z,79.37
2018-08-14T23:57:08.885Z,78.24
2018-08-14T23:59:36.538Z,78.59
